Flight Track Log - Related Links

Times and Time Zones

All times are in EST time to prevent confusion due to time zone crossing. See the SKW5228 flight status page for this flight to view local times or setup timezone preferences in your user account.

Time Position Orientation Groundspeed Altitude Reporting Facility
EST Latitude Longitude Course Direction KTS MPH feet Rate Location/Type
Tue 03:07:44 PM 46.8986 -96.8169 213° Southwest 163 188 2,400  Level Minneapolis Center
Tue 03:08:45 PM 46.8633 -96.8506 213° Southwest 157 181 4,400 2,195 Climbing Minneapolis Center
Tue 03:09:47 PM 46.8094 -96.9072 216° Southwest 224 258 6,900 2,585 Climbing Minneapolis Center
Tue 03:10:48 PM 46.7519 -96.9708 217° Southwest 246 283 9,700 2,585 Climbing Minneapolis Center
Tue 03:11:50 PM 46.6944 -97.0325 216° Southwest 262 302 12,200 2,177 Climbing Minneapolis Center
Tue 03:12:52 PM 46.6253 -97.1069 216° Southwest 293 337 14,200 2,146 Climbing Minneapolis Center
Tue 03:13:53 PM 46.5531 -97.1847 217° Southwest 310 357 16,600 2,049 Climbing Minneapolis Center
Tue 03:14:55 PM 46.4792 -97.2644 217° Southwest 314 361 18,400 1,610 Climbing Minneapolis Center
Tue 03:15:56 PM 46.4139 -97.3325 216° Southwest 329 379 19,900 1,512 Climbing Minneapolis Center
Tue 03:16:58 PM 46.3392 -97.4136 217° Southwest 336 387 21,500 1,463 Climbing Minneapolis Center
Tue 03:17:59 PM 46.2628 -97.4931 216° Southwest 338 389 22,900 1,366 Climbing Minneapolis Center
Tue 03:19:01 PM 46.1697 -97.5922 216° Southwest 347 399 24,300 1,220 Climbing Minneapolis Center
Tue 03:20:02 PM 46.0908 -97.6728 215° Southwest 348 400 25,400 1,082 Climbing Minneapolis Center
Tue 03:21:03 PM 46.0111 -97.7544 215° Southwest 350 403 26,500 878 Climbing Minneapolis Center
Tue 03:22:05 PM 45.9297 -97.8400 216° Southwest 357 411 27,200 732 Climbing Minneapolis Center
Tue 03:23:06 PM 45.8406 -97.9342 216° Southwest 363 418 28,000 683 Climbing Minneapolis Center
Tue 03:24:08 PM 45.7567 -98.0211 216° Southwest 369 425 28,600 488 Climbing Minneapolis Center
Tue 03:25:09 PM 45.6794 -98.1003 216° Southwest 372 428 29,000 439 Climbing Minneapolis Center
Tue 03:26:11 PM 45.5939 -98.1881 216° Southwest 376 433 29,500 488 Climbing Minneapolis Center
Tue 03:27:12 PM 45.5019 -98.2825 216° Southwest 379 436 30,000 390 Climbing Minneapolis Center
Tue 03:28:14 PM 45.4153 -98.3681 215° Southwest 380 437 30,300 439 Climbing Minneapolis Center
Tue 03:29:15 PM 45.3108 -98.4767 216° Southwest 386 444 30,900 488 Climbing Minneapolis Center
Tue 03:30:17 PM 45.2231 -98.5664 216° Southwest 389 448 31,300 341 Climbing Minneapolis Center
Tue 03:31:18 PM 45.1350 -98.6558 216° Southwest 391 450 31,600 341 Climbing Minneapolis Center
Tue 03:32:20 PM 45.0458 -98.7456 215° Southwest 393 452 32,000 195 Climbing Minneapolis Center
Tue 03:33:21 PM 44.9564 -98.8361 216° Southwest 396 456 32,000  Level Minneapolis Center
Tue 03:34:23 PM 44.8653 -98.9275 215° Southwest 401 461 32,000  Level Minneapolis Center
Tue 03:35:24 PM 44.7736 -99.0189 215° Southwest 404 465 32,000  Level Minneapolis Center
Tue 03:36:25 PM 44.6825 -99.1108 216° Southwest 405 466 32,000  Level Minneapolis Center
Tue 03:37:27 PM 44.5731 -99.2189 215° Southwest 403 464 32,000  Level Minneapolis Center
Tue 03:38:28 PM 44.4819 -99.3094 215° Southwest 403 464 32,000  Level Minneapolis Center
Tue 03:39:30 PM 44.3908 -99.3967 214° Southwest 400 460 32,000  Level Minneapolis Center
Tue 03:40:31 PM 44.3019 -99.4861 216° Southwest 396 456 32,000  Level Minneapolis Center
Tue 03:41:33 PM 44.2119 -99.5714 214° Southwest 394 453 32,000  Level Minneapolis Center
Tue 03:42:34 PM 44.1228 -99.6594 215° Southwest 393 452 32,000  Level Minneapolis Center
Tue 03:43:36 PM 44.0342 -99.7467 215° Southwest 392 451 32,000  Level Minneapolis Center
Tue 03:44:37 PM 43.9442 -99.8333 215° Southwest 394 453 32,000  Level Minneapolis Center
Tue 03:45:39 PM 43.8475 -99.9253 214° Southwest 395 455 32,000  Level Minneapolis Center
Tue 03:46:40 PM 43.7572 -100.0117 215° Southwest 394 453 32,000  Level Minneapolis Center
Tue 03:47:42 PM 43.6675 -100.0989 215° Southwest 394 453 32,000  Level Minneapolis Center
Tue 03:48:43 PM 43.5581 -100.2011 214° Southwest 395 455 32,000  Level Minneapolis Center
Tue 03:50:46 PM 43.3764 -100.3747 215° Southwest 397 457 32,000  Level Minneapolis Center
Tue 03:51:48 PM 43.2844 -100.4592 214° Southwest 398 458 32,000  Level Minneapolis Center
Tue 03:52:49 PM 43.1933 -100.5464 215° Southwest 398 458 32,000  Level Minneapolis Center
Tue 03:53:51 PM 43.1008 -100.6314 214° Southwest 399 459 32,000  Level Minneapolis Center
Tue 03:54:52 PM 43.0094 -100.7178 215° Southwest 399 459 32,000  Level Minneapolis Center
Tue 03:55:54 PM 42.9161 -100.8022 214° Southwest 400 460 32,000  Level Minneapolis Center
Tue 03:56:55 PM 42.8258 -100.8872 215° Southwest 399 459 32,000  Level Minneapolis Center
Tue 03:57:57 PM 42.7150 -100.9892 214° Southwest 399 459 32,000  Level Minneapolis Center
Tue 03:58:58 PM 42.6242 -101.0725 214° Southwest 398 458 32,000  Level Minneapolis Center
Tue 04:00:00 PM 42.5317 -101.1561 214° Southwest 398 458 32,000  Level Minneapolis Center
Tue 04:01:30 PM 42.4150 -101.2622 214° Southwest 398 458 32,000  Level Denver Center
Tue 04:02:32 PM 42.3039 -101.3758 217° Southwest 393 452 32,000  Level Denver Center
Tue 04:03:34 PM 42.2303 -101.4775 226° Southwest 395 455 32,000  Level Denver Center
Tue 04:04:36 PM 42.1433 -101.5944 225° Southwest 397 457 32,000  Level Denver Center
Tue 04:05:37 PM 42.0694 -101.6950 225° Southwest 394 453 32,000  Level Denver Center
Tue 04:06:39 PM 41.9819 -101.8128 225° Southwest 398 458 32,000  Level Denver Center
Tue 04:07:41 PM 41.9072 -101.9128 225° Southwest 397 457 32,000  Level Denver Center
Tue 04:08:43 PM 41.8214 -102.0300 226° Southwest 396 456 32,000  Level Denver Center
Tue 04:09:44 PM 41.7464 -102.1286 224° Southwest 394 453 32,000  Level Denver Center
Tue 04:10:46 PM 41.6739 -102.2275 226° Southwest 390 449 32,000  Level Denver Center
Tue 04:11:48 PM 41.5844 -102.3442 224° Southwest 399 459 32,000  Level Denver Center
Tue 04:12:50 PM 41.5092 -102.4439 225° Southwest 399 459 32,000  Level Denver Center
Tue 04:13:51 PM 41.4203 -102.5603 224° Southwest 401 461 32,000  Level Denver Center
Tue 04:14:53 PM 41.3472 -102.6567 225° Southwest 400 460 32,000 -194 Level Denver Center
Tue 04:15:55 PM 41.2586 -102.7719 224° Southwest 399 459 31,600 -677 Descending Denver Center
Tue 04:16:57 PM 41.1806 -102.8722 224° Southwest 397 457 30,600 -774 Descending Denver Center
Tue 04:17:59 PM 41.0953 -102.9828 224° Southwest 386 444 30,000 -293 Descending Denver Center
Tue 04:19:00 PM 41.0281 -103.0786 227° Southwest 379 436 30,000  Level Denver Center
Tue 04:20:02 PM 40.9517 -103.1828 226° Southwest 388 447 30,000  Level Denver Center
Tue 04:21:04 PM 40.8781 -103.2886 227° Southwest 391 450 30,000 -194 Level Denver Center
Tue 04:22:06 PM 40.8025 -103.3919 226° Southwest 391 450 29,600 -1,839 Descending Denver Center
Tue 04:23:08 PM 40.7142 -103.5136 226° Southwest 386 444 26,200 -2,903 Descending Denver Center
Tue 04:24:10 PM 40.6467 -103.6078 227° Southwest 364 419 23,600 -2,000 Descending Denver Center
Tue 04:25:11 PM 40.5922 -103.6803 225° Southwest 355 409 22,100 -1,512 Descending Denver Center
Tue 04:26:13 PM 40.5144 -103.7883 227° Southwest 343 395 20,500 -1,597 Descending Denver Center
Tue 04:27:15 PM 40.4444 -103.8850 226° Southwest 339 390 18,800 -1,548 Descending Denver Center
Tue 04:28:17 PM 40.3819 -103.9722 227° Southwest 328 377 17,300 -871 Descending Denver Center
Tue 04:29:19 PM 40.3539 -104.0708 250° West 279 321 17,000 -629 Descending Denver Center
Tue 04:30:21 PM 40.3542 -104.1803 270° West 299 344 16,000 -1,122 Descending Denver Center
Tue 04:31:22 PM 40.3536 -104.2911 270° West 288 331 14,700 -1,220 Descending Denver Center
Tue 04:32:24 PM 40.3431 -104.3850 262° West 265 305 13,500 -1,210 Descending Denver Center
Tue 04:33:26 PM 40.3219 -104.4703 252° West 251 289 12,200 -1,258 Descending Denver Center
Tue 04:34:28 PM 40.2772 -104.5461 232° Southwest 244 281 10,900 -1,258 Descending Denver Center
Tue 04:35:30 PM 40.2378 -104.6158 233° Southwest 239 275 9,600 -1,122 Descending Denver Center
Tue 04:36:31 PM 40.1847 -104.6728 219° Southwest 241 277 8,600 -780 Descending Denver Center
Tue 04:37:33 PM 40.1361 -104.6917 197° South 239 275 8,000 -290 Descending Denver Center
Tue 04:38:35 PM 40.0569 -104.6931 181° South 231 266 8,000 -339 Level Denver Center
Tue 04:39:37 PM 39.9981 -104.6950 181° South 193 222 7,300 -774 Descending Denver Center
Tue 04:40:39 PM 39.9469 -104.6953 180° South 184 212 6,400 -823 Descending Denver Center
Tue 04:41:41 PM 39.9044 -104.6961 181° South 148 170 5,600 -774 Descending Denver Center

Login

Don't have an account? Register now (free) for customized features, flight alerts, and more!